KMTO/MTO METAR and TAF weather

Enter ICAO airport designator
Station Type Date Time Source
KMTO METAR 2020/03/31 12:53 UTC NOAA

KMTO 311253Z AUTO 04007KT 10SM CLR 05/03 A3000 RMK AO2 SLP159 T00500028


Station Type Date Time Source
KMTO Decoded METAR 2020/03/31 12:53 UTC NOAA

MATTOON/CHARLESTON COLES CO, IL, United States (KMTO) 39-28N 88-16W 214M
Mar 31, 2020 - 08:53 AM EDT / 2020.03.31 1253 UTC
Wind: from the NE (040 degrees) at 8 MPH (7 KT):0
Visibility: 10 mile(s):0
Sky conditions: clear
Temperature: 41.0 F (5.0 C)
Dew Point: 37.0 F (2.8 C)
Relative Humidity: 85%
Pressure (altimeter): 30 in. Hg (1015 hPa)
ob: KMTO 311253Z AUTO 04007KT 10SM CLR 05/03 A3000 RMK AO2 SLP159 T00500028
cycle: 13

Station Type Date Time Source
KMTO TAF UTC NOAA

Error!

Example: see airport list